Time;durP1;ratioP1;P1;durP2;ratioP2;P2;SDS_P1;SDS_P2;PMS_P1;PMS_P2;Temp;Humidity;BMP_temperature;BMP_pressure;BME280_temperature;BME280_humidity;BME280_pressure;Samples;Min_cycle;Max_cycle;Signal;HPM_P1;HPM_P2
2022/01/11 00:00:03;;;;;;;141.77;59.65;;;;;;;10.03;100.00;99194.56;4739532;30;20055;-70
2022/01/11 00:02:56;;;;;;;154.05;61.33;;;;;;;9.98;100.00;99189.47;4746938;30;20684;-71
2022/01/11 00:08:43;;;;;;;161.63;57.33;;;;;;;9.90;100.00;99206.78;4727638;30;20078;-71
2022/01/11 00:11:25;;;;;;;197.25;56.08;;;;;;;9.82;100.00;99205.22;4745837;30;20056;-72
2022/01/11 00:14:15;;;;;;;163.02;57.30;;;;;;;9.74;100.00;99202.78;4746418;30;20071;-72
2022/01/11 00:17:00;;;;;;;143.25;56.33;;;;;;;9.72;100.00;99206.28;4747859;30;20060;-72
2022/01/11 00:19:49;;;;;;;226.55;58.03;;;;;;;9.76;100.00;99206.19;4761871;30;20068;-72
2022/01/11 00:22:34;;;;;;;164.27;54.22;;;;;;;9.70;100.00;99208.03;4745681;30;20067;-71
2022/01/11 00:25:23;;;;;;;188.02;54.63;;;;;;;9.73;100.00;99208.00;4732251;30;20068;-72
2022/01/11 00:28:07;;;;;;;138.95;53.83;;;;;;;9.61;100.00;99209.06;4746415;30;20084;-71
2022/01/11 00:31:09;;;;;;;178.98;54.45;;;;;;;9.61;100.00;99214.19;4718398;30;20048;-72
2022/01/11 00:33:53;;;;;;;178.15;54.03;;;;;;;9.50;100.00;99216.94;4723839;30;20063;-72
2022/01/11 00:36:42;;;;;;;128.88;52.17;;;;;;;9.80;100.00;99225.00;4737778;30;20059;-71
2022/01/11 00:39:25;;;;;;;197.20;55.25;;;;;;;9.62;100.00;99220.19;4748724;29;20473;-72
2022/01/11 00:42:16;;;;;;;180.35;53.75;;;;;;;9.55;100.00;99228.03;4748157;30;20632;-71
2022/01/11 00:45:00;;;;;;;153.32;52.83;;;;;;;9.48;100.00;99229.00;4717920;30;20052;-72
2022/01/11 00:47:48;;;;;;;196.00;52.95;;;;;;;9.46;100.00;99229.91;4728634;30;20088;-71
2022/01/11 00:50:32;;;;;;;158.05;53.42;;;;;;;9.48;100.00;99234.16;4746378;30;20055;-72
2022/01/11 00:53:25;;;;;;;161.77;52.80;;;;;;;9.51;100.00;99234.06;4734787;30;20056;-72
2022/01/11 00:56:08;;;;;;;185.40;55.20;;;;;;;9.54;100.00;99243.47;4744646;30;20060;-72
2022/01/11 00:58:56;;;;;;;226.07;57.28;;;;;;;9.57;100.00;99234.00;4729832;30;20600;-71
2022/01/11 01:01:40;;;;;;;201.13;58.13;;;;;;;9.50;100.00;99247.81;4730284;30;20064;-71
2022/01/11 01:04:28;;;;;;;240.90;58.55;;;;;;;9.47;100.00;99247.03;4748734;30;20083;-72
2022/01/11 01:07:11;;;;;;;201.02;58.22;;;;;;;9.49;100.00;99235.84;4746662;30;20051;-71
2022/01/11 01:10:08;;;;;;;159.52;57.88;;;;;;;9.62;100.00;99239.03;4730333;30;20110;-72
2022/01/11 01:12:55;;;;;;;138.80;56.65;;;;;;;9.58;100.00;99245.09;4716466;30;20048;-71
2022/01/11 01:15:47;;;;;;;;;;;;;;;9.52;100.00;99246.06;4734939;30;20060;-71
2022/01/11 01:18:52;;;;;;;156.63;56.33;;;;;;;9.60;100.00;99248.50;4735613;30;20464;-72
2022/01/11 01:21:40;;;;;;;179.30;57.10;;;;;;;9.49;100.00;99253.84;4727369;30;20071;-72
2022/01/11 01:24:23;;;;;;;160.20;56.63;;;;;;;9.53;100.00;99263.19;4749778;30;20068;-71
2022/01/11 01:27:13;;;;;;;195.07;56.90;;;;;;;9.56;100.00;99254.59;4728166;30;20052;-71
2022/01/11 01:29:56;;;;;;;191.75;55.72;;;;;;;9.40;100.00;99258.28;4735400;30;20063;-71
2022/01/11 01:32:48;;;;;;;155.35;56.17;;;;;;;9.54;100.00;99258.91;4748690;30;20051;-71
2022/01/11 01:35:38;;;;;;;246.65;60.92;;;;;;;9.36;100.00;99262.63;4753692;30;20059;-72
2022/01/11 01:38:27;;;;;;;215.35;56.38;;;;;;;9.23;100.00;99267.97;4746351;29;20071;-72
2022/01/11 01:41:16;;;;;;;242.48;60.50;;;;;;;9.20;100.00;99271.44;4713936;30;20125;-71
2022/01/11 01:44:05;;;;;;;314.67;59.57;;;;;;;9.06;100.00;99270.78;4728203;30;20468;-71
2022/01/11 01:46:48;;;;;;;190.67;55.90;;;;;;;9.19;100.00;99277.44;4736070;30;20052;-65
2022/01/11 01:49:39;;;;;;;193.82;59.15;;;;;;;9.21;100.00;99276.56;4704731;30;20379;-65
2022/01/11 01:52:29;;;;;;;196.30;59.05;;;;;;;9.16;100.00;99277.50;4705019;30;20741;-65
2022/01/11 01:55:12;;;;;;;189.27;57.63;;;;;;;9.23;100.00;99283.41;4734518;30;20063;-66
2022/01/11 01:57:55;;;;;;;212.82;60.90;;;;;;;9.18;100.00;99286.88;4723584;30;20517;-65
2022/01/11 02:00:51;;;;;;;231.63;62.38;;;;;;;9.22;100.00;99292.84;4745338;30;20052;-64
2022/01/11 02:03:43;;;;;;;211.30;57.42;;;;;;;9.16;100.00;99293.78;4709318;30;20432;-65
2022/01/11 02:06:29;;;;;;;209.57;55.80;;;;;;;9.11;100.00;99294.69;4728483;30;20162;-66
2022/01/11 02:09:18;;;;;;;201.68;56.03;;;;;;;9.08;100.00;99299.91;4711846;30;20068;-66
2022/01/11 02:12:02;;;;;;;173.15;56.47;;;;;;;9.10;100.00;99300.69;4729230;30;20560;-66
2022/01/11 02:14:50;;;;;;;167.43;55.25;;;;;;;9.15;100.00;99304.94;4718727;30;20489;-66
2022/01/11 02:17:33;;;;;;;171.63;57.38;;;;;;;9.25;100.00;99305.66;4721899;30;20438;-66
2022/01/11 02:20:23;;;;;;;212.23;59.50;;;;;;;9.23;100.00;99314.25;4729324;30;20067;-66
2022/01/11 02:23:06;;;;;;;235.23;59.17;;;;;;;9.13;100.00;99311.81;4726711;30;20080;-66
2022/01/11 02:25:56;;;;;;;279.63;62.83;;;;;;;9.10;100.00;99311.84;4710660;30;20049;-66
2022/01/11 02:28:39;;;;;;;246.25;63.42;;;;;;;8.97;100.00;99314.59;4695947;30;20374;-65
2022/01/11 02:31:29;;;;;;;209.40;63.22;;;;;;;9.17;100.00;99310.06;4720674;30;20432;-66
2022/01/11 02:34:13;;;;;;;213.07;64.53;;;;;;;9.13;100.00;99311.81;4721236;30;20143;-66
2022/01/11 02:37:14;;;;;;;271.95;64.70;;;;;;;9.11;100.00;99315.25;4716011;30;20060;-66
2022/01/11 02:40:06;;;;;;;170.43;58.58;;;;;;;9.11;100.00;99317.81;4733645;29;20088;-66
2022/01/11 02:42:55;;;;;;;160.85;57.40;;;;;;;9.20;100.00;99320.28;4720854;30;20052;-66
2022/01/11 02:45:38;;;;;;;152.25;56.10;;;;;;;9.31;100.00;99320.13;4734243;30;20060;-66
2022/01/11 02:48:28;;;;;;;142.88;55.25;;;;;;;9.21;100.00;99327.13;4754104;30;20067;-65
2022/01/11 02:51:05;;;;;;;147.77;55.08;;;;;;;9.20;100.00;99330.56;4748835;30;20180;-66
2022/01/11 02:54:01;;;;;;;142.85;57.35;;;;;;;9.33;100.00;99323.53;4741455;30;20052;-66
2022/01/11 02:56:46;;;;;;;171.40;62.17;;;;;;;9.37;100.00;99331.16;4732557;30;20059;-66
2022/01/11 02:59:35;;;;;;;152.02;62.30;;;;;;;9.20;100.00;99331.41;4748866;30;20065;-66
2022/01/11 03:02:26;;;;;;;175.75;60.28;;;;;;;9.24;100.00;99337.38;4734675;30;20059;-66
2022/01/11 03:05:11;;;;;;;167.90;58.30;;;;;;;9.18;100.00;99343.41;4714128;30;20052;-66
2022/01/11 03:08:02;;;;;;;167.52;58.60;;;;;;;9.16;100.00;99346.91;4736132;30;20067;-66
2022/01/11 03:10:50;;;;;;;169.35;60.67;;;;;;;9.12;100.00;99350.38;4738274;30;20512;-65
2022/01/11 03:13:41;;;;;;;160.38;60.08;;;;;;;9.21;100.00;99338.25;4723980;30;20607;-66
2022/01/11 03:16:23;;;;;;;174.38;62.45;;;;;;;9.26;100.00;99350.19;4741889;30;20059;-67
2022/01/11 03:19:13;;;;;;;155.93;59.50;;;;;;;9.30;100.00;99346.69;4760920;30;20156;-64
2022/01/11 03:21:55;;;;;;;165.80;62.00;;;;;;;9.26;100.00;99355.34;4737870;30;20056;-65
2022/01/11 03:24:46;;;;;;;162.98;63.30;;;;;;;9.54;100.00;99356.63;4717686;30;20087;-66
2022/01/11 03:27:35;;;;;;;184.93;62.80;;;;;;;9.47;100.00;99353.31;4737722;30;20416;-66
2022/01/11 03:30:28;;;;;;;230.77;77.97;;;;;;;9.41;100.00;99355.97;4737292;30;20059;-65
2022/01/11 03:33:18;;;;;;;205.50;66.07;;;;;;;9.49;100.00;99361.84;4737933;30;20133;-65
2022/01/11 03:36:01;;;;;;;202.85;67.15;;;;;;;9.49;100.00;99369.56;4759280;30;20126;-65
2022/01/11 03:38:57;;;;;;;200.15;71.38;;;;;;;9.47;100.00;99371.31;4758224;29;20088;-66
2022/01/11 03:41:48;;;;;;;203.00;67.85;;;;;;;9.58;100.00;99382.28;4714307;30;20052;-66
2022/01/11 03:44:39;;;;;;;188.02;63.33;;;;;;;9.50;100.00;99386.69;4703355;30;20055;-65
2022/01/11 03:47:22;;;;;;;147.68;59.70;;;;;;;9.92;100.00;99384.34;4735199;30;20060;-66
2022/01/11 03:50:11;;;;;;;153.38;59.67;;;;;;;9.78;100.00;99386.28;4715536;30;20079;-66
2022/01/11 03:53:11;;;;;;;167.02;65.70;;;;;;;9.74;100.00;99388.03;4732235;30;20631;-65
2022/01/11 03:56:21;;;;;;;153.27;64.55;;;;;;;9.82;100.00;99398.22;4713761;30;20052;-65
2022/01/11 03:59:24;;;;;;;215.02;69.57;;;;;;;9.74;100.00;99395.75;4714425;30;20505;-66
2022/01/11 04:02:07;;;;;;;212.43;71.15;;;;;;;9.68;100.00;99400.16;4725681;30;20044;-67
2022/01/11 04:04:57;;;;;;;190.48;69.60;;;;;;;9.82;100.00;99408.50;4715271;30;20655;-67
2022/01/11 04:07:43;;;;;;;195.60;69.72;;;;;;;9.89;100.00;99413.56;4699426;30;20051;-67
2022/01/11 04:10:33;;;;;;;204.32;68.93;;;;;;;9.75;100.00;99406.91;4729465;30;20053;-66
2022/01/11 04:13:17;;;;;;;168.07;67.28;;;;;;;9.86;100.00;99416.16;4717459;30;20061;-67
2022/01/11 04:16:06;;;;;;;166.52;64.60;;;;;;;10.01;100.00;99417.66;4733219;30;21285;-66
2022/01/11 04:18:48;;;;;;;158.45;66.07;;;;;;;10.10;100.00;99425.22;4729186;30;20060;-67
2022/01/11 04:21:38;;;;;;;149.68;62.47;;;;;;;10.23;100.00;99431.03;4714678;30;20773;-67
2022/01/11 04:24:22;;;;;;;134.55;63.50;;;;;;;10.18;100.00;99422.56;4712991;30;20537;-67
2022/01/11 04:27:11;;;;;;;147.85;63.20;;;;;;;10.43;100.00;99428.16;4712824;30;20056;-68
2022/01/11 04:29:53;;;;;;;160.23;67.35;;;;;;;10.50;100.00;99424.59;4732095;30;20045;-68
2022/01/11 04:32:42;;;;;;;147.63;66.50;;;;;;;10.62;100.00;99424.34;4714531;30;20060;-67
2022/01/11 04:35:41;;;;;;;156.32;68.93;;;;;;;10.71;100.00;99429.34;4706520;30;20052;-67
2022/01/11 04:38:19;;;;;;;152.73;68.45;;;;;;;10.77;100.00;99434.41;4716911;30;20057;-67
2022/01/11 04:41:14;;;;;;;153.15;68.05;;;;;;;10.98;100.00;99430.56;4728815;29;20057;-71
2022/01/11 04:43:51;;;;;;;157.25;68.90;;;;;;;11.06;100.00;99437.25;4712052;30;20087;-69
2022/01/11 04:46:48;;;;;;;170.15;73.05;;;;;;;11.38;100.00;99428.00;4705152;30;20053;-68
2022/01/11 04:49:24;;;;;;;169.50;74.03;;;;;;;11.56;100.00;99435.34;4714851;30;20109;-70
2022/01/11 04:52:23;;;;;;;155.88;70.57;;;;;;;11.69;100.00;99436.78;4701585;30;20041;-66
2022/01/11 04:55:12;;;;;;;153.20;72.28;;;;;;;11.93;100.00;99434.53;4711881;30;20123;-67
2022/01/11 04:58:03;;;;;;;168.60;75.60;;;;;;;12.31;100.00;99429.31;4718398;30;20139;-69
2022/01/11 05:00:46;;;;;;;163.13;73.55;;;;;;;12.53;100.00;99437.38;4719452;30;20118;-68
2022/01/11 05:03:37;;;;;;;148.65;70.18;;;;;;;13.15;100.00;99433.13;4720311;30;20060;-65
2022/01/11 05:06:20;;;;;;;150.23;71.30;;;;;;;13.29;100.00;99435.31;4735301;30;20076;-67
2022/01/11 05:09:10;;;;;;;155.27;71.47;;;;;;;13.34;100.00;99431.69;4736670;30;20056;-67
2022/01/11 05:11:52;;;;;;;141.60;71.20;;;;;;;13.67;100.00;99429.84;4716211;30;20313;-66
2022/01/11 05:14:43;;;;;;;151.32;72.78;;;;;;;13.93;100.00;99435.97;4723960;30;20056;-66
2022/01/11 05:17:27;;;;;;;152.18;74.32;;;;;;;14.07;100.00;99432.03;4722260;30;20074;-66
2022/01/11 05:20:17;;;;;;;151.30;72.53;;;;;;;14.34;100.00;99432.88;4712137;30;20068;-66
2022/01/11 05:22:59;;;;;;;;;;;;;;;14.63;100.00;99434.50;4714244;30;20067;-66
2022/01/11 05:25:50;;;;;;;139.10;70.22;;;;;;;14.62;100.00;99431.97;4704691;30;20763;-66
2022/01/11 05:28:34;;;;;;;147.63;71.40;;;;;;;14.60;100.00;99432.03;4714156;30;20068;-67
2022/01/11 05:31:23;;;;;;;146.25;74.22;;;;;;;14.37;100.00;99431.91;4721833;30;20047;-67
2022/01/11 05:34:06;;;;;;;148.35;76.90;;;;;;;14.53;100.00;99433.13;4713733;30;20072;-65
2022/01/11 05:36:56;;;;;;;174.20;81.03;;;;;;;14.62;100.00;99431.97;4714475;30;20549;-68
2022/01/11 05:39:53;;;;;;;162.25;79.80;;;;;;;15.03;100.00;99433.09;4723643;30;20691;-68
2022/01/11 05:42:29;;;;;;;152.43;80.63;;;;;;;14.92;100.00;99431.72;4735366;30;20060;-67
2022/01/11 05:45:19;;;;;;;151.63;81.47;;;;;;;15.06;100.00;99430.41;4751290;30;20138;-67
2022/01/11 05:48:03;;;;;;;163.27;81.88;;;;;;;15.37;100.00;99423.19;4732512;30;20056;-66
2022/01/11 05:50:52;;;;;;;166.98;84.15;;;;;;;15.12;100.00;99415.47;4731347;30;20051;-66
2022/01/11 05:53:36;;;;;;;165.30;84.57;;;;;;;15.13;100.00;99422.34;4738823;30;20521;-67
2022/01/11 05:56:33;;;;;;;158.05;85.40;;;;;;;15.34;100.00;99420.69;4739187;30;20325;-67
2022/01/11 05:59:09;;;;;;;155.85;83.75;;;;;;;15.32;100.00;99409.56;4719981;30;20733;-66
2022/01/11 06:02:06;;;;;;;168.18;83.88;;;;;;;15.31;100.00;99415.63;4728706;30;20071;-66
2022/01/11 06:04:44;;;;;;;156.68;83.18;;;;;;;15.59;100.00;99402.47;4743484;30;20052;-65
2022/01/11 06:07:39;;;;;;;;;;;;;;;15.45;100.00;99395.19;4746376;30;20056;-66
2022/01/11 06:10:16;;;;;;;157.85;81.70;;;;;;;15.83;100.00;99393.72;4730901;30;20058;-64
2022/01/11 06:13:11;;;;;;;162.52;82.00;;;;;;;15.57;100.00;99392.13;4738883;30;20441;-65
2022/01/11 06:15:49;;;;;;;155.30;82.07;;;;;;;15.57;100.00;99386.09;4736620;30;20219;-65
2022/01/11 06:18:45;;;;;;;143.60;75.70;;;;;;;15.66;100.00;99383.97;4724882;30;20052;-64
2022/01/11 06:21:26;;;;;;;173.88;82.60;;;;;;;15.77;100.00;99387.91;4732410;30;20150;-65
2022/01/11 06:24:08;;;;;;;154.33;86.37;;;;;;;16.06;100.00;99378.03;4735162;30;20087;-64
2022/01/11 06:27:03;;;;;;;189.45;94.35;;;;;;;16.29;100.00;99381.44;4745433;30;20524;-64
2022/01/11 06:29:59;;;;;;;182.70;95.35;;;;;;;16.59;100.00;99374.09;4743502;30;20059;-64
2022/01/11 06:32:36;;;;;;;176.90;93.47;;;;;;;16.36;100.00;99372.50;4747983;30;20056;-64
2022/01/11 06:35:33;;;;;;;182.10;93.22;;;;;;;16.30;100.00;99363.16;4747819;30;20067;-65
2022/01/11 06:38:11;;;;;;;192.38;94.40;;;;;;;16.32;100.00;99355.31;4730096;30;20142;-64
2022/01/11 06:41:06;;;;;;;186.63;94.43;;;;;;;16.12;100.00;99356.16;4728755;30;20150;-64
2022/01/11 06:43:52;;;;;;;165.27;88.70;;;;;;;16.57;100.00;99350.75;4734162;30;20059;-64
2022/01/11 06:46:48;;;;;;;156.32;87.07;;;;;;;16.27;100.00;99337.31;4749210;30;20076;-64
2022/01/11 06:49:25;;;;;;;165.25;85.65;;;;;;;16.68;100.00;99337.31;4729220;30;20509;-64
2022/01/11 06:52:07;;;;;;;178.30;88.15;;;;;;;16.74;100.00;99337.03;4733408;30;20060;-65
2022/01/11 06:54:57;;;;;;;175.13;87.38;;;;;;;16.49;100.00;99323.38;4738395;30;20155;-64
2022/01/11 06:57:40;;;;;;;164.77;84.85;;;;;;;16.67;100.00;99322.59;4730837;30;20203;-64
2022/01/11 07:00:29;;;;;;;160.60;88.82;;;;;;;16.84;100.00;99320.09;4726275;30;20056;-64
2022/01/11 07:03:18;;;;;;;168.75;89.47;;;;;;;16.31;100.00;99312.84;4704978;30;20368;-64
2022/01/11 07:06:23;;;;;;;168.15;89.32;;;;;;;16.80;100.00;99308.13;4726623;30;20504;-64
2022/01/11 07:09:17;;;;;;;170.90;88.20;;;;;;;16.76;100.00;99297.00;4735192;30;20069;-64
2022/01/11 07:12:08;;;;;;;169.57;89.35;;;;;;;16.86;100.00;99287.03;4722396;30;20401;-65
2022/01/11 07:15:10;;;;;;;160.77;83.32;;;;;;;17.04;100.00;99291.38;4745152;30;20131;-65
2022/01/11 07:17:54;;;;;;;164.88;85.10;;;;;;;17.28;100.00;99289.38;4733564;30;20369;-64
2022/01/11 07:20:51;;;;;;;161.77;85.25;;;;;;;17.30;100.00;99276.31;4729339;30;20052;-65
2022/01/11 07:23:29;;;;;;;157.88;86.22;;;;;;;17.42;100.00;99273.94;4728855;30;20062;-64
2022/01/11 07:26:19;;;;;;;164.38;87.78;;;;;;;17.29;100.00;99270.25;4730499;30;20063;-65
2022/01/11 07:29:10;;;;;;;170.23;90.53;;;;;;;17.32;100.00;99261.44;4727584;30;20209;-64
2022/01/11 07:31:52;;;;;;;166.80;91.13;;;;;;;17.27;100.00;99258.22;4744070;30;20082;-64
2022/01/11 07:34:41;;;;;;;176.93;90.68;;;;;;;17.14;100.00;99250.16;4748628;30;20477;-64
2022/01/11 07:37:23;;;;;;;174.02;88.57;;;;;;;17.43;100.00;99241.75;4750007;30;20682;-64
2022/01/11 07:40:17;;;;;;;192.75;94.70;;;;;;;17.36;100.00;99242.13;4744255;30;20052;-65
2022/01/11 07:43:15;;;;;;;161.35;88.53;;;;;;;17.35;100.00;99238.69;4727348;30;20051;-65
2022/01/11 07:46:08;;;;;;;177.27;90.68;;;;;;;17.23;100.00;99239.31;4727204;30;20052;-64
2022/01/11 07:48:59;;;;;;;167.98;89.40;;;;;;;17.44;100.00;99235.66;4726913;30;20060;-65
2022/01/11 07:51:42;;;;;;;172.43;89.65;;;;;;;17.47;100.00;99232.06;4733377;30;20127;-66
2022/01/11 07:54:32;;;;;;;171.02;89.30;;;;;;;17.37;95.88;99223.84;4727310;30;20060;-64
2022/01/11 07:57:17;;;;;;;168.88;88.25;;;;;;;17.44;96.91;99217.41;4729515;30;20135;-64
2022/01/11 08:00:10;;;;;;;183.43;87.60;;;;;;;17.44;99.73;99203.53;4734178;30;20481;-64
2022/01/11 08:02:57;;;;;;;170.63;88.45;;;;;;;17.17;98.17;99203.13;4732080;30;20533;-64
2022/01/11 08:06:16;;;;;;;170.18;87.35;;;;;;;17.27;99.50;99198.31;4723433;30;20052;-64
2022/01/11 08:09:14;;;;;;;151.25;79.20;;;;;;;17.22;95.74;99195.94;4727245;30;20064;-64
2022/01/11 08:11:58;;;;;;;166.38;83.03;;;;;;;17.34;95.05;99190.13;4730769;30;20135;-64
2022/01/11 08:14:48;;;;;;;158.10;81.00;;;;;;;17.19;95.28;99181.31;4728391;30;20102;-64
2022/01/11 08:17:32;;;;;;;161.65;82.80;;;;;;;17.42;95.93;99184.53;4727626;30;20083;-62
2022/01/11 08:20:21;;;;;;;165.20;82.22;;;;;;;17.25;99.17;99174.09;4744684;30;20146;-65
2022/01/11 08:23:04;;;;;;;142.25;77.22;;;;;;;17.31;95.14;99179.88;4729592;30;20948;-66
2022/01/11 08:26:01;;;;;;;150.73;75.70;;;;;;;17.23;94.68;99168.16;4726384;30;20860;-64
2022/01/11 08:28:39;;;;;;;141.13;75.45;;;;;;;17.24;94.41;99165.44;4715790;30;20553;-65
2022/01/11 08:31:36;;;;;;;143.70;74.80;;;;;;;17.25;92.56;99161.91;4743773;30;20064;-65
2022/01/11 08:34:14;;;;;;;156.68;75.40;;;;;;;17.24;93.07;99156.81;4741285;30;20048;-65
2022/01/11 08:37:04;;;;;;;146.82;74.00;;;;;;;17.24;94.42;99143.78;4728660;30;20063;-66
2022/01/11 08:39:54;;;;;;;147.43;73.30;;;;;;;17.40;93.21;99152.53;4730166;30;20056;-65
2022/01/11 08:42:37;;;;;;;149.38;74.22;;;;;;;17.27;91.96;99143.63;4730019;30;20091;-65
2022/01/11 08:45:26;;;;;;;132.43;69.45;;;;;;;17.40;92.06;99144.72;4711950;30;20052;-65
2022/01/11 08:48:14;;;;;;;149.45;72.75;;;;;;;17.38;92.43;99143.94;4710817;30;20190;-66
2022/01/11 08:51:11;;;;;;;144.65;75.85;;;;;;;17.32;90.48;99128.63;4713779;30;20540;-65
2022/01/11 08:53:54;;;;;;;162.55;79.35;;;;;;;17.14;89.02;99127.78;4708968;30;20616;-65
2022/01/11 08:56:43;;;;;;;168.45;83.47;;;;;;;17.17;91.38;99125.00;4703657;30;20064;-65
2022/01/11 08:59:34;;;;;;;155.68;75.93;;;;;;;17.15;87.55;99122.50;4698398;30;20075;-65
2022/01/11 09:02:23;;;;;;;147.38;74.85;;;;;;;17.24;90.29;99120.34;4712548;30;20100;-65
2022/01/11 09:05:15;;;;;;;152.73;80.13;;;;;;;17.28;92.26;99111.47;4726558;30;20067;-65
2022/01/11 09:08:04;;;;;;;181.15;86.80;;;;;;;17.06;91.19;99106.50;4716929;30;20068;-65
2022/01/11 09:10:54;;;;;;;173.75;83.10;;;;;;;17.19;92.34;99103.19;4726860;30;20056;-64
2022/01/11 09:13:44;;;;;;;181.27;89.50;;;;;;;17.24;93.11;99094.31;4709699;30;20052;-65
2022/01/11 09:16:34;;;;;;;191.30;91.13;;;;;;;17.16;92.44;99092.09;4709830;30;20667;-65
2022/01/11 09:19:18;;;;;;;192.80;88.25;;;;;;;17.28;94.03;99086.25;4707109;30;20091;-65
2022/01/11 09:22:08;;;;;;;149.40;73.75;;;;;;;17.07;88.26;99088.19;4701463;30;20074;-65
2022/01/11 09:24:52;;;;;;;156.77;74.78;;;;;;;17.05;91.03;99077.00;4707780;30;20060;-65
2022/01/11 09:27:51;;;;;;;118.75;57.58;;;;;;;16.98;87.59;99078.25;4707948;30;20056;-65
2022/01/11 09:30:41;;;;;;;111.38;50.25;;;;;;;17.01;85.42;99069.41;4694615;30;20067;-65
2022/01/11 09:33:24;;;;;;;102.95;49.30;;;;;;;16.92;84.30;99075.91;4725568;30;20149;-65
2022/01/11 09:36:16;;;;;;;98.25;49.30;;;;;;;16.87;85.83;99070.09;4707881;30;20068;-65
2022/01/11 09:38:58;;;;;;;98.63;47.45;;;;;;;16.84;86.36;99065.06;4710681;30;20139;-65
2022/01/11 09:41:58;;;;;;;89.93;42.17;;;;;;;16.85;87.36;99061.53;4723074;30;20048;-65
2022/01/11 09:44:40;;;;;;;91.63;44.38;;;;;;;16.94;88.20;99061.06;4730439;30;20666;-65
2022/01/11 09:47:35;;;;;;;83.25;42.42;;;;;;;16.90;87.68;99056.94;4740466;30;20068;-65
2022/01/11 09:50:16;;;;;;;90.22;44.00;;;;;;;16.91;89.67;99057.78;4735195;30;20437;-66
2022/01/11 09:53:11;;;;;;;81.88;43.50;;;;;;;16.89;90.71;99057.88;4732821;30;20121;-65
2022/01/11 09:55:57;;;;;;;84.50;42.53;;;;;;;16.81;89.96;99058.25;4751845;30;20075;-65
2022/01/11 09:58:48;;;;;;;83.80;44.28;;;;;;;16.87;92.06;99057.09;4726078;30;20568;-65
2022/01/11 10:01:56;;;;;;;87.05;43.20;;;;;;;16.83;93.47;99058.19;4741533;30;20123;-65
2022/01/11 10:05:05;;;;;;;75.53;41.08;;;;;;;16.92;93.36;99052.50;4727016;30;20743;-65
2022/01/11 10:07:58;;;;;;;71.80;37.80;;;;;;;16.86;93.24;99051.97;4725973;30;20520;-64
2022/01/11 10:10:52;;;;;;;64.47;35.38;;;;;;;16.87;92.87;99049.28;4727195;30;20060;-65
2022/01/11 10:13:42;;;;;;;54.78;30.52;;;;;;;16.82;90.84;99051.28;4726888;30;20060;-64
2022/01/11 10:16:32;;;;;;;60.28;32.42;;;;;;;16.81;91.86;99047.00;4726424;30;20541;-65
2022/01/11 10:19:26;;;;;;;52.42;31.25;;;;;;;16.79;91.30;99031.44;4746560;30;20580;-64
2022/01/11 10:22:20;;;;;;;55.13;31.23;;;;;;;16.82;91.27;99036.50;4757669;30;20059;-65
2022/01/11 10:25:10;;;;;;;46.63;29.85;;;;;;;16.84;92.02;99024.25;4735403;30;20048;-65
2022/01/11 10:28:01;;;;;;;49.00;28.00;;;;;;;16.81;91.70;99028.78;4739745;30;20052;-64
2022/01/11 10:30:48;;;;;;;45.50;27.77;;;;;;;16.69;92.12;99025.00;4744732;30;20772;-65
2022/01/11 10:33:41;;;;;;;45.70;28.85;;;;;;;16.63;93.24;99019.28;4730422;30;20071;-64
2022/01/11 10:36:44;;;;;;;44.55;27.63;;;;;;;16.58;92.16;99021.22;4743189;30;20048;-64
2022/01/11 10:39:44;;;;;;;48.50;27.52;;;;;;;16.59;94.07;99012.53;4704623;30;21242;-66
2022/01/11 10:42:34;;;;;;;47.58;27.98;;;;;;;16.62;95.47;99017.59;4737167;30;20097;-64
2022/01/11 10:45:30;;;;;;;46.25;27.92;;;;;;;16.66;95.98;99008.72;4707568;30;20064;-65
2022/01/11 10:48:30;;;;;;;43.95;27.40;;;;;;;16.48;93.25;99012.19;4698474;30;20400;-64
2022/01/11 10:51:15;;;;;;;49.85;27.50;;;;;;;16.44;93.30;99006.31;4721780;30;20060;-66
2022/01/11 10:54:05;;;;;;;44.05;26.67;;;;;;;16.42;93.07;99008.97;4729750;30;20674;-66
2022/01/11 10:56:47;;;;;;;44.63;26.90;;;;;;;16.40;93.37;99003.00;4716926;30;20059;-64
2022/01/11 10:59:30;;;;;;;41.40;26.17;;;;;;;16.36;94.63;99001.44;4728780;30;20118;-64
2022/01/11 11:02:31;;;;;;;43.72;24.77;;;;;;;16.30;94.78;98999.16;4711692;30;20059;-64
2022/01/11 11:05:37;;;;;;;42.47;23.50;;;;;;;16.25;94.66;99008.94;4710134;30;20210;-64
2022/01/11 11:08:33;;;;;;;42.83;25.10;;;;;;;16.18;96.09;98993.72;4711728;30;20065;-65
2022/01/11 11:11:27;;;;;;;46.70;26.05;;;;;;;16.33;99.53;98996.41;4711471;30;20080;-65
2022/01/11 11:14:21;;;;;;;51.45;26.30;;;;;;;16.25;99.96;98995.09;4729357;30;20045;-64
2022/01/11 11:17:32;;;;;;;45.58;26.65;;;;;;;16.14;100.00;99002.56;4719802;30;20197;-65
2022/01/11 11:20:24;;;;;;;50.05;23.20;;;;;;;15.96;96.03;98997.31;4712295;30;20196;-64
2022/01/11 11:23:12;;;;;;;45.88;22.75;;;;;;;15.94;96.23;99001.75;4729330;30;20052;-65
2022/01/11 11:26:01;;;;;;;42.17;22.92;;;;;;;15.91;98.06;98996.69;4713947;30;20057;-65
2022/01/11 11:28:43;;;;;;;41.78;23.40;;;;;;;15.92;99.43;98993.19;4726530;30;20080;-65
2022/01/11 11:31:35;;;;;;;41.90;23.60;;;;;;;15.82;97.33;98988.47;4725870;30;20064;-65
2022/01/11 11:34:17;;;;;;;47.15;23.83;;;;;;;15.85;99.35;98985.75;4730761;30;20052;-64
2022/01/11 11:37:14;;;;;;;45.03;25.33;;;;;;;15.84;100.00;98986.66;4728303;30;20139;-65
2022/01/11 11:39:59;;;;;;;45.83;24.33;;;;;;;15.74;100.00;98990.56;4719006;30;20056;-65
2022/01/11 11:42:59;;;;;;;57.33;26.80;;;;;;;15.64;100.00;98979.78;4726617;30;20052;-64
2022/01/11 11:45:39;;;;;;;51.23;27.53;;;;;;;15.72;100.00;98976.84;4724472;30;20496;-64
2022/01/11 11:48:29;;;;;;;52.20;28.27;;;;;;;15.61;100.00;98975.56;4726424;30;20103;-64
2022/01/11 11:51:14;;;;;;;52.33;27.67;;;;;;;15.46;100.00;98965.00;4726837;30;20057;-64
2022/01/11 11:54:21;;;;;;;48.40;27.90;;;;;;;15.38;100.00;98972.28;4727168;30;20068;-64
2022/01/11 11:57:04;;;;;;;54.30;28.45;;;;;;;15.28;100.00;98969.25;4712955;30;20134;-64
2022/01/11 12:00:15;;;;;;;48.42;29.70;;;;;;;15.22;100.00;98974.72;4711418;30;20061;-64
2022/01/11 12:03:24;;;;;;;65.85;30.00;;;;;;;15.15;100.00;98975.91;4726588;30;20052;-64
2022/01/11 12:06:28;;;;;;;65.25;30.25;;;;;;;15.06;100.00;98971.97;4726395;30;20693;-64
2022/01/11 12:09:32;;;;;;;53.63;29.65;;;;;;;14.96;100.00;98972.41;4708071;30;20056;-64
2022/01/11 12:12:41;;;;;;;60.47;29.83;;;;;;;14.85;100.00;98976.31;4719235;30;20057;-64
2022/01/11 12:15:36;;;;;;;60.47;30.25;;;;;;;14.75;100.00;98977.63;4703855;30;20068;-65
2022/01/11 12:18:19;;;;;;;52.60;28.88;;;;;;;14.70;100.00;98973.53;4728182;30;20061;-64
2022/01/11 12:21:10;;;;;;;56.13;30.52;;;;;;;14.64;100.00;98979.81;4728606;30;20056;-64
2022/01/11 12:23:58;;;;;;;53.45;28.08;;;;;;;14.50;100.00;98974.38;4724731;30;20063;-64
2022/01/11 12:26:47;;;;;;;65.32;29.98;;;;;;;14.45;100.00;98981.47;4714404;30;20057;-64
2022/01/11 12:29:58;;;;;;;77.35;30.80;;;;;;;14.38;100.00;98982.59;4731830;30;20069;-64
2022/01/11 12:33:16;;;;;;;64.18;31.95;;;;;;;14.25;100.00;98981.41;4712892;30;20063;-65
2022/01/11 12:36:07;;;;;;;68.43;31.90;;;;;;;14.16;100.00;98974.84;4735208;30;20041;-64
2022/01/11 12:39:12;;;;;;;63.22;32.60;;;;;;;14.02;100.00;98975.41;4736190;30;20062;-65
2022/01/11 12:42:27;;;;;;;68.65;32.00;;;;;;;13.99;100.00;98987.63;4727077;30;20059;-63
2022/01/11 12:47:59;;;;;;;65.35;32.67;;;;;;;13.81;100.00;98983.97;4752137;30;20056;-64
2022/01/11 12:51:03;;;;;;;75.35;33.72;;;;;;;13.75;100.00;98989.41;4735859;30;20083;-65
2022/01/11 12:53:46;;;;;;;60.80;34.13;;;;;;;13.74;100.00;98988.56;4752013;30;20051;-67
2022/01/11 12:56:37;;;;;;;70.45;34.53;;;;;;;13.68;100.00;98990.53;4748097;30;20048;-64